Punta Gorda, FL

6:42 PM EDT on April 25, 2015 (GMT -0400)
Charlotte County | | Change Station
CLOSE
Current Station
Airport
Location: Punta Gorda,
Elevation: 26 ft
Nearby Weather Stations
Active Advisory: Beach Hazard Statement

Elev 26 ft 26.92 °N, 81.99 °W | Updated 49 minutes ago

Clear
Clear
85 °F
Feels Like 91 °F
N
12
Wind Variable Wind from SW

Today
High -- | Low -- °F
--% Chance of Precip.
Yesterday
High -- | Low -- °F
Precip. -- in
6:54 AM 7:57 PM
Waxing Crescent, 49% visible
Pressure 29.87 in
Visibility 10.0 miles
Clouds Clear
Heat Index 91 °F
Dew Point 72 °F
Humidity 65%
Rainfall 0.00 in
Snow Depth Not available.
UV 3 out of 12
Pollen 7.70 out of 12
Air Quality Not available.
Flu Activity Local Activity
METAR KPGD 252153Z 23010KT 10SM CLR 29/22 A2987 RMK AO2 SLP115 T02940222

More Conditions Fewer Conditions

Pressure 29.87 in
Visibility 10.0 miles
Clouds Clear
Heat Index 91 °F
Dew Point 72 °F
Humidity 65%
Rainfall 0.00 in
Snow Depth Not available.
UV 3 out of 12
Pollen 7.70 out of 12
Air Quality Not available.
Flu Activity Local Activity
METAR KPGD 252153Z 23010KT 10SM CLR 29/22 A2987 RMK AO2 SLP115 T02940222

More Conditions Fewer Conditions

10-Day Weather Forecast

Almanac

Astronomy

Apr. 25, 2015 Rise Set
Actual Time
Civil Twilight
Nautical Twilight
Astronomical Twilight
Moon
Length of Visible Light
Length of Day
Tomorrow will be .
, % of the Moon is Illuminated

Today's Extremes

State Highs State Lows

Community

WunderPhotos

Upload Photos

1,816,841 photos uploaded!

WunderBlogs® & News

Nearby

Air Quality

  Air Quality AQ Index Pollutant
Not available.

Snow Depth

Station Depth Elevation

Earthquake Activity

City Distance Mag. Time & Date
Minimum magnitude displayed is 2.5.

Coastal Water Temperatures

Place Temperature

Stations

Nearby Weather Stations

Station Location Temp. Windchill Dew Point Humidity Wind Precip. Elev Updated Type
                   
Beach Hazard Statement
Statement as of 2:53 PM EDT on April 25, 2015

... Beach hazards statement remains in effect through Sunday
evening...

* hazards... moderate risk of rip currents.

* Timing... through Sunday evening.

* Impacts... rip currents will have the potential to be stronger
and more frequent through the remainder of the weekend.

Precautionary/preparedness actions...

Rip currents are powerful channels of water flowing quickly away
from shore... which occur most often at low spots or breaks in The
Sandbar and in the vicinity of structures such as groins...
jetties and piers. Heed the advice of lifeguards and the beach
patrol. Pay attention to flags and posted signs.

If you become caught in a rip current... do not panic. Remain calm
and begin to swim parallel to shore. Once you are away from the
force of the rip current... begin to swim back to the beach. Do
not attempt to swim directly against a rip current. Even a strong
swimmer can become exhausted quickly.